Time;durP1;ratioP1;P1;durP2;ratioP2;P2;SDS_P1;SDS_P2;PMS_P1;PMS_P2;Temp;Humidity;BMP_temperature;BMP_pressure;BME280_temperature;BME280_humidity;BME280_pressure;Samples;Min_cycle;Max_cycle;Signal;HPM_P1;HPM_P2
2023/11/14 00:01:24;;;;;;;;;20.00;18.00;;;;;-143.90;100.00;74634.72;4680254;29;103729;-80
2023/11/14 00:03:51;;;;;;;;;18.25;17.50;;;;;-143.90;100.00;74638.88;4684688;29;107675;-80
2023/11/14 00:06:18;;;;;;;;;17.75;13.00;;;;;-143.90;100.00;74626.47;4681405;29;102110;-80
2023/11/14 00:08:45;;;;;;;;;17.75;13.00;;;;;-143.90;100.00;74634.72;4683943;29;103016;-83
2023/11/14 00:11:12;;;;;;;;;17.00;14.25;;;;;-143.90;100.00;74634.72;4683894;29;101928;-82
2023/11/14 00:13:38;;;;;;;;;12.25;11.75;;;;;-143.90;100.00;74624.41;4681778;29;104173;-83
2023/11/14 00:16:05;;;;;;;;;17.00;15.25;;;;;-143.90;100.00;74622.34;4679885;29;102757;-82
2023/11/14 00:18:32;;;;;;;;;22.25;17.00;;;;;-143.90;100.00;74626.47;4679396;29;102069;-83
2023/11/14 00:20:59;;;;;;;;;14.25;14.00;;;;;-143.90;100.00;74618.19;4682417;29;102075;-83
2023/11/14 00:23:26;;;;;;;;;13.50;11.75;;;;;-143.90;100.00;74626.47;4663384;29;104318;-79
2023/11/14 00:25:52;;;;;;;;;16.00;13.50;;;;;-143.90;100.00;74618.19;4681629;29;102609;-82
2023/11/14 00:28:19;;;;;;;;;16.00;13.50;;;;;-143.90;100.00;74614.06;4683651;29;104075;-81
2023/11/14 00:30:46;;;;;;;;;14.25;13.00;;;;;-143.90;100.00;74593.38;4681147;29;102497;-83
2023/11/14 00:33:13;;;;;;;;;17.75;16.50;;;;;-143.90;100.00;74607.84;4683284;29;104237;-85
2023/11/14 00:35:40;;;;;;;;;14.50;13.25;;;;;-143.90;100.00;74616.13;4681602;29;103523;-83
2023/11/14 00:38:06;;;;;;;;;22.75;18.75;;;;;-143.90;100.00;74643.00;4681638;29;102369;-84
2023/11/14 00:40:33;;;;;;;;;48.75;39.00;;;;;-143.90;100.00;74694.69;4680870;29;102186;-83
2023/11/14 00:43:00;;;;;;;;;42.50;35.00;;;;;-143.90;100.00;74713.28;4682978;29;103990;-79
2023/11/14 00:45:28;;;;;;;;;30.25;29.75;;;;;-143.90;100.00;74775.31;4678788;29;102636;-77
2023/11/14 00:47:54;;;;;;;;;32.00;30.50;;;;;-143.90;100.00;74756.69;4679756;29;102140;-77
2023/11/14 00:50:23;;;;;;;;;36.25;33.00;;;;;-143.90;100.00;74783.56;4678297;29;102338;-79
2023/11/14 00:52:50;;;;;;;;;35.50;30.75;;;;;-143.90;100.00;74771.16;4674995;29;108870;-79
2023/11/14 00:55:17;;;;;;;;;35.50;30.00;;;;;-143.90;100.00;74731.88;4674158;29;102094;-78
2023/11/14 00:57:44;;;;;;;;;23.50;19.00;;;;;-143.90;100.00;74729.81;4674266;29;102347;-79
2023/11/14 01:00:12;;;;;;;;;16.50;15.75;;;;;-143.90;100.00;74698.81;4683170;29;102116;-79
2023/11/14 01:02:39;;;;;;;;;12.75;12.25;;;;;-143.90;100.00;74682.28;4678017;29;104020;-79
2023/11/14 01:05:06;;;;;;;;;11.25;9.00;;;;;-143.90;100.00;74667.81;4682731;29;102434;-80
2023/11/14 01:07:33;;;;;;;;;7.00;7.00;;;;;-143.90;100.00;74655.41;4676384;29;102196;-79
2023/11/14 01:10:00;;;;;;;;;7.00;4.50;;;;;-143.90;100.00;74626.47;4678388;29;102401;-80
2023/11/14 01:12:26;;;;;;;;;7.25;6.50;;;;;-143.90;100.00;74601.66;4675648;29;104456;-80
2023/11/14 01:14:53;;;;;;;;;3.75;3.00;;;;;-143.90;100.00;74556.19;4677732;29;102262;-80
2023/11/14 01:17:20;;;;;;;;;4.00;2.25;;;;;-143.90;100.00;74533.44;4671269;29;102385;-81
2023/11/14 01:19:50;;;;;;;;;2.00;2.00;;;;;-143.90;100.00;74504.50;4673991;29;102443;-82
2023/11/14 01:22:17;;;;;;;;;1.50;1.50;;;;;-143.90;100.00;74479.69;4675410;29;104134;-82
2023/11/14 01:24:46;;;;;;;;;0.75;0.75;;;;;-143.90;100.00;74477.63;4671306;29;101903;-83
2023/11/14 01:27:12;;;;;;;;;1.25;1.25;;;;;-143.90;100.00;74454.91;4671521;29;102974;-85
2023/11/14 01:29:39;;;;;;;;;4.00;2.50;;;;;-143.90;100.00;74438.38;4670221;29;101982;-83
2023/11/14 01:32:06;;;;;;;;;1.00;1.00;;;;;-143.90;100.00;74432.16;4665973;29;104243;-86
2023/11/14 01:34:35;;;;;;;;;1.50;1.50;;;;;-143.90;100.00;74405.28;4665629;29;102004;-84
2023/11/14 01:37:02;;;;;;;;;1.00;1.00;;;;;-143.90;100.00;74390.81;4667101;29;102313;-89
2023/11/14 01:39:29;;;;;;;;;1.75;1.00;;;;;-143.90;100.00;74392.88;4666350;29;102579;-86
2023/11/14 01:41:56;;;;;;;;;1.25;0.75;;;;;-143.90;100.00;74399.09;4664076;29;104067;-82
2023/11/14 01:44:23;;;;;;;;;2.00;2.00;;;;;-143.90;100.00;74407.34;4670133;29;102174;-85
2023/11/14 01:46:49;;;;;;;;;1.00;1.00;;;;;-143.90;100.00;74403.22;4665070;29;103993;-82
2023/11/14 01:49:16;;;;;;;;;1.75;1.00;;;;;-143.90;100.00;74405.28;4669788;29;103284;-81
2023/11/14 01:51:45;;;;;;;;;2.00;2.00;;;;;-143.90;100.00;74419.75;4663032;29;103753;-80
2023/11/14 01:54:12;;;;;;;;;3.00;2.00;;;;;-143.90;100.00;74419.75;4670457;29;102241;-80
2023/11/14 01:56:41;;;;;;;;;3.00;2.00;;;;;-143.90;100.00;74413.56;4672585;29;102276;-83
2023/11/14 01:59:08;;;;;;;;;1.75;1.75;;;;;-143.90;100.00;74419.75;4674558;29;103132;-80
2023/11/14 02:01:35;;;;;;;;;2.00;2.00;;;;;-143.90;100.00;74411.50;4671509;29;104256;-80
2023/11/14 02:04:13;;;;;;;;;2.00;2.00;;;;;-143.90;100.00;74415.63;4669739;29;101939;-82
2023/11/14 02:06:39;;;;;;;;;1.00;1.00;;;;;-143.90;100.00;74405.28;4670422;29;106639;-81
2023/11/14 02:09:09;;;;;;;;;3.00;2.00;;;;;-143.90;100.00;74419.75;4671546;29;102008;-80
2023/11/14 02:11:36;;;;;;;;;3.25;3.25;;;;;-143.90;100.00;74428.03;4666719;29;105375;-81
2023/11/14 02:14:03;;;;;;;;;2.25;2.25;;;;;-143.90;100.00;74409.41;4672529;29;102567;-83
2023/11/14 02:16:54;;;;;;;;;4.00;3.00;;;;;-143.90;100.00;74388.75;4667463;29;102280;-81
2023/11/14 02:19:22;;;;;;;;;3.00;3.00;;;;;-143.90;100.00;74374.28;4669212;29;102870;-88
2023/11/14 02:21:50;;;;;;;;;2.00;1.75;;;;;-143.90;100.00;74368.09;4671504;29;104088;-82
2023/11/14 02:24:19;;;;;;;;;2.75;2.00;;;;;-143.90;100.00;74366.00;4673947;29;102330;-84
2023/11/14 02:26:48;;;;;;;;;3.00;2.75;;;;;-143.90;100.00;74349.47;4675893;29;102114;-86
2023/11/14 02:29:16;;;;;;;;;1.00;1.00;;;;;-143.90;100.00;74351.53;4673868;29;105672;-82
2023/11/14 02:31:43;;;;;;;;;2.25;2.25;;;;;-143.90;100.00;74347.41;4675287;29;104058;-86
2023/11/14 02:34:10;;;;;;;;;2.00;2.00;;;;;-143.90;100.00;74332.94;4670244;29;102357;-83
2023/11/14 02:36:40;;;;;;;;;3.00;2.00;;;;;-143.90;100.00;74339.16;4675031;29;102763;-85
2023/11/14 02:39:10;;;;;;;;;2.25;1.00;;;;;-143.90;100.00;74328.81;4671661;29;102064;-80
2023/11/14 02:41:37;;;;;;;;;3.00;3.00;;;;;-143.90;100.00;74322.59;4671831;29;104048;-81
2023/11/14 02:44:05;;;;;;;;;2.50;2.00;;;;;-143.90;100.00;74316.41;4676004;29;102314;-85
2023/11/14 02:46:32;;;;;;;;;3.00;3.00;;;;;-143.90;100.00;74316.41;4675324;29;102400;-85
2023/11/14 02:49:22;;;;;;;;;2.25;2.25;;;;;-143.90;100.00;74322.59;4677940;29;102768;-86
2023/11/14 02:51:48;;;;;;;;;1.50;1.50;;;;;-143.90;100.00;74322.59;4676416;29;104189;-85
2023/11/14 02:54:15;;;;;;;;;1.00;1.00;;;;;-143.90;100.00;74324.69;4675832;29;102117;-83
2023/11/14 02:56:41;;;;;;;;;2.25;2.00;;;;;-143.90;100.00;74324.69;4674549;29;102653;-85
2023/11/14 02:59:08;;;;;;;;;1.75;1.75;;;;;-143.90;100.00;74332.94;4678474;29;102153;-84
2023/11/14 03:01:37;;;;;;;;;2.00;2.00;;;;;-143.90;100.00;74324.69;4672964;29;104004;-88
2023/11/14 03:04:04;;;;;;;;;1.50;1.50;;;;;-143.90;100.00;74324.69;4671595;29;102286;-84
2023/11/14 03:06:30;;;;;;;;;2.50;2.00;;;;;-143.90;100.00;74320.53;4665625;29;102140;-80
2023/11/14 03:08:57;;;;;;;;;2.50;1.75;;;;;-143.90;100.00;74308.13;4675269;29;102364;-82
2023/11/14 03:11:24;;;;;;;;;1.25;1.25;;;;;-143.90;100.00;74306.06;4677452;29;104068;-80
2023/11/14 03:13:51;;;;;;;;;2.75;2.00;;;;;-143.90;100.00;74316.41;4670925;29;104129;-84
2023/11/14 03:16:17;;;;;;;;;3.00;2.75;;;;;-143.90;100.00;74320.53;4671411;29;102028;-82
2023/11/14 03:18:44;;;;;;;;;1.75;1.75;;;;;-143.90;100.00;74328.81;4676702;29;102008;-82
2023/11/14 03:21:11;;;;;;;;;3.00;2.25;;;;;-143.90;100.00;74320.53;4676895;29;104161;-82
2023/11/14 03:23:37;;;;;;;;;2.00;2.00;;;;;-143.90;100.00;74324.69;4677218;29;102628;-83
2023/11/14 03:26:04;;;;;;;;;2.00;2.00;;;;;-143.90;100.00;74332.94;4679157;29;102615;-82
2023/11/14 03:28:31;;;;;;;;;2.00;2.00;;;;;-143.90;100.00;74341.22;4675340;29;102296;-83
2023/11/14 03:30:59;;;;;;;;;1.75;1.75;;;;;-143.90;100.00;74345.34;4671449;29;104010;-82
2023/11/14 03:33:25;;;;;;;;;2.25;2.00;;;;;-143.90;100.00;74347.41;4676872;29;102475;-84
2023/11/14 03:35:52;;;;;;;;;2.00;2.00;;;;;-143.90;100.00;74355.69;4676677;29;102051;-84
2023/11/14 03:38:19;;;;;;;;;0.25;0.00;;;;;-143.90;100.00;74349.47;4673724;29;102393;-82
2023/11/14 03:40:45;;;;;;;;;1.00;1.00;;;;;-143.90;100.00;74349.47;4674621;29;104248;-88
2023/11/14 03:43:12;;;;;;;;;1.00;1.00;;;;;-143.90;100.00;74345.34;4674124;29;102744;-83
2023/11/14 03:45:39;;;;;;;;;1.50;1.50;;;;;-143.90;100.00;74345.34;4672155;29;102052;-84
2023/11/14 03:48:05;;;;;;;;;2.25;2.25;;;;;-143.90;100.00;74353.63;4672640;29;102262;-80
2023/11/14 03:50:32;;;;;;;;;3.00;2.75;;;;;-143.90;100.00;74353.63;4676261;29;104129;-81
2023/11/14 03:52:59;;;;;;;;;1.50;1.50;;;;;-143.90;100.00;74355.69;4674187;29;102744;-82
2023/11/14 03:55:25;;;;;;;;;0.75;0.75;;;;;-143.90;100.00;74368.09;4675387;29;102571;-83
2023/11/14 03:57:52;;;;;;;;;2.75;1.75;;;;;-143.90;100.00;74378.41;4677380;29;102990;-82
2023/11/14 04:00:19;;;;;;;;;2.50;2.00;;;;;-143.90;100.00;74382.56;4672208;29;104122;-85
2023/11/14 04:02:45;;;;;;;;;3.00;3.00;;;;;-143.90;100.00;74394.94;4673476;29;104174;-84
2023/11/14 04:05:12;;;;;;;;;2.00;2.00;;;;;-143.90;100.00;74403.22;4676856;29;103845;-83
2023/11/14 04:07:38;;;;;;;;;1.25;1.00;;;;;-143.90;100.00;74413.56;4675057;29;104204;-82
2023/11/14 04:10:07;;;;;;;;;2.75;2.50;;;;;-143.90;100.00;74411.50;4674579;29;104184;-83
2023/11/14 04:12:34;;;;;;;;;3.00;3.00;;;;;-143.90;100.00;74415.63;4674374;29;102059;-82
2023/11/14 04:15:00;;;;;;;;;7.75;4.75;;;;;-143.90;100.00;74417.69;4674045;29;102147;-85
2023/11/14 04:17:27;;;;;;;;;5.00;4.75;;;;;-143.90;100.00;74419.75;4679361;29;102948;-82
2023/11/14 04:19:54;;;;;;;;;7.00;7.00;;;;;-143.90;100.00;74423.88;4677305;29;104001;-84
2023/11/14 04:22:21;;;;;;;;;4.50;4.50;;;;;-143.90;100.00;74432.16;4676249;29;102235;-83
2023/11/14 04:24:47;;;;;;;;;4.75;3.50;;;;;-143.90;100.00;74436.28;4674500;29;102256;-81
2023/11/14 04:27:14;;;;;;;;;6.00;4.00;;;;;-143.90;100.00;74438.38;4674346;29;102007;-84
2023/11/14 04:29:41;;;;;;;;;4.00;4.00;;;;;-143.90;100.00;74444.56;4675076;29;103990;-84
2023/11/14 04:32:07;;;;;;;;;4.00;3.25;;;;;-143.90;100.00;74450.75;4676874;29;102218;-82
2023/11/14 04:34:34;;;;;;;;;8.00;7.00;;;;;-143.90;100.00;74454.91;4674546;29;102336;-83
2023/11/14 04:37:01;;;;;;;;;12.50;9.25;;;;;-143.90;100.00;74456.97;4678809;29;103170;-83
2023/11/14 04:39:27;;;;;;;;;13.50;8.50;;;;;-143.90;100.00;74463.16;4674566;29;104138;-84
2023/11/14 04:41:54;;;;;;;;;7.00;6.00;;;;;-143.90;100.00;74461.09;4675439;29;102145;-84
2023/11/14 04:44:21;;;;;;;;;7.00;6.25;;;;;-143.90;100.00;74459.03;4671268;29;103824;-86
2023/11/14 04:46:47;;;;;;;;;7.75;7.00;;;;;-143.90;100.00;74459.03;4672491;29;102141;-83
2023/11/14 04:49:14;;;;;;;;;7.00;6.00;;;;;-143.90;100.00;74459.03;4669863;29;104021;-85
2023/11/14 04:51:41;;;;;;;;;7.00;7.00;;;;;-143.90;100.00;74461.09;4671593;29;103737;-83
2023/11/14 04:54:07;;;;;;;;;9.00;7.00;;;;;-143.90;100.00;74465.22;4672346;29;102179;-84
2023/11/14 04:56:34;;;;;;;;;9.00;8.25;;;;;-143.90;100.00;74461.09;4679630;29;102200;-87
2023/11/14 04:59:01;;;;;;;;;9.25;7.75;;;;;-143.90;100.00;74465.22;4680072;29;104670;-82
2023/11/14 05:01:28;;;;;;;;;12.75;10.00;;;;;-143.90;100.00;74463.16;4691391;29;102363;-83
2023/11/14 05:03:55;;;;;;;;;8.25;8.00;;;;;-143.90;100.00;74473.50;4694228;29;102241;-74
2023/11/14 05:06:22;;;;;;;;;8.75;6.75;;;;;-143.90;100.00;74469.38;4694741;29;102267;-78
2023/11/14 05:08:48;;;;;;;;;8.00;5.75;;;;;-143.90;100.00;74471.44;4682714;29;103073;-83
2023/11/14 05:11:15;;;;;;;;;7.00;7.00;;;;;-143.90;100.00;74469.38;4680823;29;103129;-84
2023/11/14 05:13:42;;;;;;;;;9.00;7.25;;;;;-143.90;100.00;74477.63;4671633;29;102361;-84
2023/11/14 05:16:10;;;;;;;;;5.75;4.50;;;;;-143.90;100.00;74477.63;4668929;29;102123;-84
2023/11/14 05:18:49;;;;;;;;;7.25;7.00;;;;;-143.90;100.00;74477.63;4672353;29;104017;-84
2023/11/14 05:21:16;;;;;;;;;7.25;5.25;;;;;-143.90;100.00;74475.56;4672843;29;107836;-85
2023/11/14 05:23:42;;;;;;;;;7.25;6.75;;;;;-143.90;100.00;74477.63;4670651;29;102125;-85
2023/11/14 05:26:09;;;;;;;;;5.50;4.00;;;;;-143.90;100.00;74481.78;4672806;29;102800;-87
2023/11/14 05:28:39;;;;;;;;;6.00;6.00;;;;;-143.90;100.00;74477.63;4671032;29;104198;-84
2023/11/14 05:31:05;;;;;;;;;3.00;3.00;;;;;-143.90;100.00;74469.38;4676652;29;102322;-84
2023/11/14 05:33:32;;;;;;;;;3.75;3.50;;;;;-143.90;100.00;74477.63;4682708;29;102341;-80
2023/11/14 05:35:59;;;;;;;;;6.00;6.00;;;;;-143.90;100.00;74479.69;4683328;29;102130;-83
2023/11/14 05:38:27;;;;;;;;;5.00;4.50;;;;;-143.90;100.00;74494.16;4682603;29;103113;-81
2023/11/14 05:40:55;;;;;;;;;7.25;5.00;;;;;-143.90;100.00;74490.03;4679196;29;102378;-85
2023/11/14 05:43:24;;;;;;;;;8.75;7.50;;;;;-143.90;100.00;74502.44;4662132;29;102277;-84
2023/11/14 05:45:53;;;;;;;;;7.25;7.00;;;;;-143.90;100.00;74500.38;4663240;29;103323;-85
2023/11/14 05:48:20;;;;;;;;;7.00;7.00;;;;;-143.90;100.00;74510.72;4667790;29;107569;-87
2023/11/14 05:50:47;;;;;;;;;6.00;6.00;;;;;-143.90;100.00;74512.78;4670103;29;102127;-86
2023/11/14 05:53:15;;;;;;;;;7.25;7.00;;;;;-143.90;100.00;74525.19;4666809;29;103525;-89
2023/11/14 05:55:42;;;;;;;;;7.25;6.50;;;;;-143.90;100.00;74510.72;4672736;29;102173;-85
2023/11/14 05:58:10;;;;;;;;;5.25;4.25;;;;;-143.90;100.00;74516.91;4673036;29;104013;-84
2023/11/14 06:00:36;;;;;;;;;8.25;7.00;;;;;-143.90;100.00;74518.97;4670175;29;104032;-84
2023/11/14 06:03:03;;;;;;;;;7.75;7.00;;;;;-143.90;100.00;74523.09;4670959;29;102163;-86
2023/11/14 06:05:30;;;;;;;;;6.75;6.25;;;;;-143.90;100.00;74529.31;4665786;29;102289;-87
2023/11/14 06:07:57;;;;;;;;;8.50;7.50;;;;;-143.90;100.00;74523.09;4672948;29;103140;-84
2023/11/14 06:10:23;;;;;;;;;7.75;7.75;;;;;-143.90;100.00;74525.19;4673436;29;102389;-82
2023/11/14 06:12:51;;;;;;;;;10.00;9.00;;;;;-143.90;100.00;74518.97;4633256;29;1275186;-84
2023/11/14 06:15:18;;;;;;;;;9.50;9.50;;;;;-143.90;100.00;74525.19;4678199;29;102104;-84
2023/11/14 06:17:44;;;;;;;;;8.00;7.00;;;;;-143.90;100.00;74518.97;4674133;29;104061;-82
2023/11/14 06:20:12;;;;;;;;;8.75;7.25;;;;;-143.90;100.00;74523.09;4674048;29;102247;-83
2023/11/14 06:22:39;;;;;;;;;6.00;6.00;;;;;-143.90;100.00;74521.03;4674617;29;102788;-85
2023/11/14 06:25:07;;;;;;;;;9.00;7.50;;;;;-143.90;100.00;74510.72;4678515;29;102241;-86
2023/11/14 06:27:34;;;;;;;;;11.50;8.25;;;;;-143.90;100.00;74523.09;4675774;29;104123;-82
2023/11/14 06:30:01;;;;;;;;;10.00;8.50;;;;;-143.90;100.00;74525.19;4674667;29;102471;-87
2023/11/14 06:32:28;;;;;;;;;8.00;7.50;;;;;-143.90;100.00;74531.38;4677497;29;102177;-82
2023/11/14 06:34:56;;;;;;;;;13.50;10.00;;;;;-143.90;100.00;74543.78;4674862;29;102974;-83
2023/11/14 06:37:23;;;;;;;;;9.75;8.00;;;;;-143.90;100.00;74533.44;4678456;29;105014;-87
2023/11/14 06:39:49;;;;;;;;;9.25;7.75;;;;;-143.90;100.00;74535.50;4675672;29;102586;-84
2023/11/14 06:42:16;;;;;;;;;9.00;9.00;;;;;-143.90;100.00;74539.66;4673573;29;103028;-83
2023/11/14 06:44:44;;;;;;;;;8.00;5.00;;;;;-143.90;100.00;74535.50;4679345;29;102233;-82
2023/11/14 06:47:12;;;;;;;;;5.25;5.25;;;;;-143.90;100.00;74539.66;4673132;29;104035;-87
2023/11/14 06:49:39;;;;;;;;;7.50;5.50;;;;;-143.90;100.00;74537.56;4674777;29;102414;-84
2023/11/14 06:52:06;;;;;;;;;8.75;8.00;;;;;-143.90;100.00;74543.78;4692015;29;102776;-86
2023/11/14 06:54:33;;;;;;;;;10.00;6.50;;;;;-143.90;100.00;74523.09;4676455;29;102056;-83
2023/11/14 06:56:59;;;;;;;;;8.25;7.00;;;;;-143.90;100.00;74535.50;4675445;29;104321;-81
2023/11/14 06:59:29;;;;;;;;;8.25;8.00;;;;;-143.90;100.00;74531.38;4682093;29;103654;-82
2023/11/14 07:02:01;;;;;;;;;9.00;8.00;;;;;-143.90;100.00;74535.50;4677862;29;102136;-83
2023/11/14 07:04:27;;;;;;;;;9.25;7.75;;;;;-143.90;100.00;74539.66;4676642;29;102293;-83
2023/11/14 07:06:54;;;;;;;;;7.25;5.00;;;;;-143.90;100.00;74535.50;4678286;29;104046;-81
2023/11/14 07:09:25;;;;;;;;;7.25;7.00;;;;;-143.90;100.00;74539.66;4673147;29;102065;-86
2023/11/14 07:11:54;;;;;;;;;9.25;8.00;;;;;-143.90;100.00;74529.31;4675576;29;102264;-82
2023/11/14 07:14:24;;;;;;;;;10.00;9.00;;;;;-143.90;100.00;74531.38;4676282;29;102449;-83
2023/11/14 07:16:51;;;;;;;;;9.00;7.75;;;;;-143.90;100.00;74527.25;4676003;29;111632;-83
2023/11/14 07:19:19;;;;;;;;;9.75;8.00;;;;;-143.90;100.00;74533.44;4675962;29;103209;-81
2023/11/14 07:21:46;;;;;;;;;7.00;7.00;;;;;-143.90;100.00;74529.31;4675710;29;102492;-85
2023/11/14 07:24:14;;;;;;;;;8.00;6.50;;;;;-143.90;100.00;74527.25;4677162;29;102373;-83
2023/11/14 07:26:43;;;;;;;;;6.25;6.25;;;;;-143.90;100.00;74518.97;4676273;29;104099;-83
2023/11/14 07:29:12;;;;;;;;;8.00;8.00;;;;;-143.90;100.00;74514.84;4670573;29;103226;-83
2023/11/14 07:31:39;;;;;;;;;4.75;4.25;;;;;-143.90;100.00;74508.63;4671396;29;102686;-83
2023/11/14 07:34:07;;;;;;;;;10.00;9.00;;;;;-143.90;100.00;74502.44;4676646;29;102070;-85
2023/11/14 07:36:34;;;;;;;;;8.00;8.00;;;;;-143.90;100.00;74496.25;4674059;29;104297;-84
2023/11/14 07:39:01;;;;;;;;;8.50;6.50;;;;;-143.90;100.00;74500.38;4676319;29;102346;-85
2023/11/14 07:41:27;;;;;;;;;8.75;8.00;;;;;-143.90;100.00;74492.09;4674990;29;101981;-82
2023/11/14 07:43:54;;;;;;;;;6.75;5.75;;;;;-143.90;100.00;74500.38;4678038;29;102132;-89
2023/11/14 07:46:22;;;;;;;;;7.50;6.50;;;;;-143.90;100.00;74502.44;4669059;29;110244;-82
2023/11/14 07:48:49;;;;;;;;;7.00;5.00;;;;;-143.90;100.00;74512.78;4674757;29;102119;-83
2023/11/14 07:51:16;;;;;;;;;7.00;5.00;;;;;-143.90;100.00;74508.63;4669310;29;102284;-82
2023/11/14 07:53:46;;;;;;;;;8.25;4.00;;;;;-143.90;100.00;74504.50;4670605;29;102109;-83
2023/11/14 07:56:14;;;;;;;;;5.00;5.00;;;;;-143.90;100.00;74502.44;4672553;29;104625;-85
2023/11/14 07:58:41;;;;;;;;;6.00;5.00;;;;;-143.90;100.00;74506.56;4676158;29;102415;-84
2023/11/14 08:01:09;;;;;;;;;8.00;5.00;;;;;-143.90;100.00;74500.38;4675299;29;102546;-79
2023/11/14 08:03:36;;;;;;;;;5.50;4.50;;;;;-143.90;100.00;74498.31;4674598;29;102402;-83
2023/11/14 08:06:04;;;;;;;;;0.00;0.00;;;;;-143.90;100.00;74483.84;4662228;29;104038;-84
2023/11/14 08:08:30;;;;;;;;;8.25;6.00;;;;;-143.90;100.00;74485.91;4674764;29;102559;-85
2023/11/14 08:10:57;;;;;;;;;4.00;4.00;;;;;-143.90;100.00;74477.63;4674418;29;102161;-81
2023/11/14 08:13:24;;;;;;;;;8.00;6.00;;;;;-143.90;100.00;74485.91;4666921;29;102275;-85
2023/11/14 08:15:50;;;;;;;;;6.00;4.00;;;;;-143.90;100.00;74479.69;4674154;29;106743;-80
2023/11/14 08:18:17;;;;;;;;;5.00;4.75;;;;;-143.90;100.00;74473.50;4652736;29;102267;-83
2023/11/14 08:20:44;;;;;;;;;4.00;4.00;;;;;-143.90;100.00;74475.56;4674336;29;102454;-83
2023/11/14 08:23:10;;;;;;;;;5.00;4.50;;;;;-143.90;100.00;74481.78;4677450;29;102642;-84
2023/11/14 08:25:37;;;;;;;;;4.50;3.75;;;;;-143.90;100.00;74469.38;4664333;29;103983;-83
2023/11/14 08:28:04;;;;;;;;;5.00;4.00;;;;;-143.90;100.00;74473.50;4671098;29;102259;-84
2023/11/14 08:30:31;;;;;;;;;3.50;3.50;;;;;-143.90;100.00;74475.56;4672569;29;101957;-81
2023/11/14 08:32:57;;;;;;;;;4.25;4.00;;;;;-143.90;100.00;74469.38;4671841;29;102446;-82
2023/11/14 08:35:25;;;;;;;;;6.50;4.25;;;;;-143.90;100.00;74465.22;4673672;29;104180;-82
2023/11/14 08:37:53;;;;;;;;;3.50;3.50;;;;;-143.90;100.00;74465.22;4675160;29;101973;-86
2023/11/14 08:40:21;;;;;;;;;3.00;3.00;;;;;-143.90;100.00;74465.22;4674514;29;104006;-83
2023/11/14 08:42:51;;;;;;;;;3.00;3.00;;;;;-143.90;100.00;74465.22;4675879;29;102532;-84
2023/11/14 08:45:19;;;;;;;;;7.00;4.00;;;;;-143.90;100.00;74456.97;4676176;29;104166;-84
2023/11/14 08:47:47;;;;;;;;;3.75;3.25;;;;;-143.90;100.00;74448.69;4668530;29;101925;-85
2023/11/14 08:50:14;;;;;;;;;4.00;3.00;;;;;-143.90;100.00;74442.50;4665289;29;101998;-83
2023/11/14 08:52:40;;;;;;;;;5.50;3.00;;;;;-143.90;100.00;74440.44;4674486;29;102104;-83
2023/11/14 08:55:07;;;;;;;;;4.00;3.75;;;;;-143.90;100.00;74421.81;4676010;29;104072;-83
2023/11/14 08:57:34;;;;;;;;;7.25;5.00;;;;;-143.90;100.00;74432.16;4673286;29;102184;-81
2023/11/14 09:00:00;;;;;;;;;2.50;2.50;;;;;-143.90;100.00;74432.16;4674795;29;102272;-84
2023/11/14 09:02:27;;;;;;;;;7.00;5.00;;;;;-143.90;100.00;74430.09;4675358;29;102323;-80
2023/11/14 09:04:54;;;;;;;;;4.75;4.00;;;;;-143.90;100.00;74425.97;4677703;29;104023;-82
2023/11/14 09:07:21;;;;;;;;;3.50;3.00;;;;;-143.90;99.88;74428.03;4673713;29;102681;-81
2023/11/14 09:09:47;;;;;;;;;3.75;3.00;;;;;-143.90;99.62;74436.28;4663774;29;101878;-83
2023/11/14 09:12:14;;;;;;;;;4.00;3.50;;;;;-143.90;99.35;74428.03;4675373;29;102571;-85
2023/11/14 09:14:41;;;;;;;;;5.25;4.25;;;;;-143.90;98.54;74419.75;4673000;29;104113;-81
2023/11/14 09:17:10;;;;;;;;;4.50;3.00;;;;;-143.90;96.52;74432.16;4675675;29;102631;-79
2023/11/14 09:19:38;;;;;;;;;3.00;3.00;;;;;-143.90;95.63;74430.09;4674388;29;102487;-81
2023/11/14 09:22:05;;;;;;;;;5.00;4.25;;;;;-143.90;95.85;74434.22;4675365;29;102217;-82
2023/11/14 09:24:31;;;;;;;;;3.00;3.00;;;;;-143.90;94.48;74438.38;4667375;29;104171;-84
2023/11/14 09:26:58;;;;;;;;;3.50;2.00;;;;;-143.90;93.96;74442.50;4675971;29;102487;-78
2023/11/14 09:29:24;;;;;;;;;5.50;3.00;;;;;-143.90;94.74;74438.38;4665919;29;102644;-82
2023/11/14 09:31:51;;;;;;;;;7.00;4.00;;;;;-143.90;94.54;74432.16;4672670;29;102331;-86
2023/11/14 09:34:18;;;;;;;;;5.50;4.75;;;;;-143.90;94.28;74419.75;4675273;29;104181;-82
2023/11/14 09:36:45;;;;;;;;;5.50;3.75;;;;;-143.90;93.98;74409.41;4672169;29;102842;-83
2023/11/14 09:39:13;;;;;;;;;3.25;2.25;;;;;-143.90;93.48;74397.03;4674090;29;103880;-84
2023/11/14 09:41:54;;;;;;;;;3.00;2.50;;;;;-143.90;93.01;74390.81;4673018;29;102587;-83
2023/11/14 09:44:21;;;;;;;;;5.50;3.25;;;;;-143.90;92.12;74397.03;4672389;29;110228;-79
2023/11/14 09:46:52;;;;;;;;;3.00;3.00;;;;;-143.90;92.28;74386.69;4675140;29;102579;-86
2023/11/14 09:49:18;;;;;;;;;3.00;3.00;;;;;-143.90;92.19;74384.63;4671919;29;101979;-77
2023/11/14 09:51:45;;;;;;;;;7.75;4.50;;;;;-143.90;89.52;74405.28;4670968;29;102087;-84
2023/11/14 09:54:15;;;;;;;;;3.50;2.50;;;;;-143.90;88.56;74403.22;4673666;29;104105;-82
2023/11/14 09:56:48;;;;;;;;;4.25;2.00;;;;;-143.90;88.62;74394.94;4670844;29;102253;-79
2023/11/14 09:59:15;;;;;;;;;3.00;3.00;;;;;-143.90;88.17;74411.50;4667954;29;102249;-85
2023/11/14 10:01:43;;;;;;;;;2.00;2.00;;;;;-143.90;88.38;74403.22;4661929;29;102478;-87
2023/11/14 10:04:10;;;;;;;;;1.50;1.50;;;;;-143.90;87.30;74403.22;4671427;29;104034;-77
2023/11/14 10:06:41;;;;;;;;;2.50;2.25;;;;;-143.90;88.43;74374.28;4674374;29;102303;-82
2023/11/14 10:09:11;;;;;;;;;4.00;2.75;;;;;-143.90;86.88;74370.16;4665372;29;102320;-88
2023/11/14 10:11:46;;;;;;;;;1.50;1.50;;;;;-143.90;86.50;74349.47;4674015;29;102771;-83
2023/11/14 10:14:44;;;;;;;;;4.00;4.00;;;;;-143.90;86.51;74320.53;4655050;29;109735;-81
2023/11/14 10:17:12;;;;;;;;;4.00;2.25;;;;;-143.90;84.85;74308.13;4645015;29;102120;-80
2023/11/14 10:19:58;;;;;;;;;4.00;2.00;;;;;-143.90;83.64;74316.41;4653093;29;102153;-79
2023/11/14 10:22:29;;;;;;;;;2.75;1.00;;;;;-143.90;86.42;74320.53;4658116;29;102302;-86
2023/11/14 10:24:56;;;;;;;;;4.75;3.00;;;;;-143.90;85.27;74332.94;4653772;29;108842;-80
2023/11/14 10:27:27;;;;;;;;;4.00;3.25;;;;;-143.90;86.62;74337.06;4656720;29;102073;-84
2023/11/14 10:29:55;;;;;;;;;3.00;3.00;;;;;-143.90;86.99;74349.47;4653460;29;103058;-81
2023/11/14 10:32:22;;;;;;;;;3.00;3.00;;;;;-143.90;86.17;74366.00;4655948;29;102559;-80
2023/11/14 10:34:51;;;;;;;;;2.00;2.00;;;;;-143.90;86.31;74347.41;4652403;29;104082;-81
2023/11/14 10:37:30;;;;;;;;;3.50;2.75;;;;;-143.90;86.12;74345.34;4654980;29;102136;-81
2023/11/14 10:39:57;;;;;;;;;4.25;2.00;;;;;-143.90;85.84;74339.16;4655159;29;102712;-79
2023/11/14 10:42:25;;;;;;;;;2.00;2.00;;;;;-143.90;85.46;74337.06;4656514;29;102417;-88
2023/11/14 10:45:01;;;;;;;;;3.00;2.00;;;;;-143.90;86.10;74341.22;4658663;29;108828;-83
2023/11/14 10:47:42;;;;;;;;;2.00;2.00;;;;;-143.90;87.21;74324.69;4656042;29;102891;-81
2023/11/14 10:50:27;;;;;;;;;3.25;2.75;;;;;-143.90;86.49;74337.06;4657396;29;102130;-83
2023/11/14 10:53:01;;;;;;;;;2.25;2.00;;;;;-143.90;85.75;74308.13;4661073;29;102520;-82
2023/11/14 10:55:28;;;;;;;;;2.75;2.75;;;;;-143.90;86.63;74306.06;4658855;29;109001;-82
2023/11/14 10:57:55;;;;;;;;;4.00;4.00;;;;;-143.90;85.96;74322.59;4664844;29;102074;-81
2023/11/14 11:00:23;;;;;;;;;3.00;2.00;;;;;-143.90;86.87;74324.69;4652012;29;103932;-89
2023/11/14 11:02:51;;;;;;;;;2.00;2.00;;;;;-143.90;85.95;74324.69;4660258;29;102224;-84
2023/11/14 11:05:20;;;;;;;;;3.75;2.00;;;;;-143.90;85.42;74361.88;4660269;29;103025;-81